Time;durP1;ratioP1;P1;durP2;ratioP2;P2;SDS_P1;SDS_P2;PMS_P1;PMS_P2;Temp;Humidity;BMP_temperature;BMP_pressure;BME280_temperature;BME280_humidity;BME280_pressure;Samples;Min_cycle;Max_cycle;Signal;HPM_P1;HPM_P2
2023/04/07 00:00:48;;;;;;;14.67;11.70;;;10.60;99.90;;;;;;5073711;28;20452;-58
2023/04/07 00:03:15;;;;;;;16.17;11.77;;;10.60;99.90;;;;;;5073683;28;20461;-58
2023/04/07 00:05:41;;;;;;;19.50;12.33;;;10.60;99.90;;;;;;5073626;28;20480;-58
2023/04/07 00:08:09;;;;;;;17.50;12.63;;;10.60;99.90;;;;;;5073635;28;20467;-58
2023/04/07 00:10:36;;;;;;;14.93;13.43;;;10.50;99.90;;;;;;5073719;28;20449;-58
2023/04/07 00:13:03;;;;;;;16.20;14.53;;;10.50;99.90;;;;;;5073277;28;20930;-58
2023/04/07 00:15:30;;;;;;;21.43;15.90;;;10.50;99.90;;;;;;5073527;28;20445;-58
2023/04/07 00:17:57;;;;;;;21.57;17.77;;;10.50;99.90;;;;;;5073587;28;20444;-58
2023/04/07 00:20:24;;;;;;;21.67;18.07;;;10.40;99.90;;;;;;5073480;28;20501;-58
2023/04/07 00:22:50;;;;;;;19.80;17.70;;;10.40;99.90;;;;;;5073410;28;20452;-58
2023/04/07 00:25:18;;;;;;;21.57;18.70;;;10.40;99.90;;;;;;5073387;28;20488;-57
2023/04/07 00:27:45;;;;;;;22.60;18.80;;;10.40;99.90;;;;;;5073469;28;20440;-57
2023/04/07 00:30:14;;;;;;;25.70;20.30;;;10.40;99.90;;;;;;5073370;28;20464;-57
2023/04/07 00:32:40;;;;;;;27.77;21.10;;;10.40;99.90;;;;;;5073044;28;20946;-57
2023/04/07 00:35:08;;;;;;;23.90;19.77;;;10.40;99.90;;;;;;5072993;28;20570;-57
2023/04/07 00:37:34;;;;;;;25.83;20.60;;;10.40;99.90;;;;;;5073040;28;20961;-57
2023/04/07 00:40:02;;;;;;;27.93;21.43;;;10.40;99.90;;;;;;5073436;28;20453;-57
2023/04/07 00:42:31;;;;;;;27.50;22.03;;;10.40;99.90;;;;;;5072860;28;20457;-57
2023/04/07 00:44:57;;;;;;;28.07;22.17;;;10.40;99.90;;;;;;5072978;28;20515;-57
2023/04/07 00:47:24;;;;;;;29.77;22.13;;;10.30;99.90;;;;;;5073373;28;20440;-57
2023/04/07 00:49:51;;;;;;;33.97;24.30;;;10.30;99.90;;;;;;5073249;28;20452;-57
2023/04/07 00:52:18;;;;;;;30.90;22.50;;;10.30;99.90;;;;;;5073227;28;20466;-57
2023/04/07 00:54:46;;;;;;;31.33;22.93;;;10.30;99.90;;;;;;5076309;28;20469;-57
2023/04/07 00:57:13;;;;;;;32.87;24.10;;;10.40;99.90;;;;;;5077264;28;20444;-57
2023/04/07 00:59:41;;;;;;;29.20;23.60;;;10.30;99.90;;;;;;5077190;28;20444;-58
2023/04/07 01:02:13;;;;;;;27.10;22.47;;;10.30;99.90;;;;;;5077044;28;20457;-58
2023/04/07 01:04:46;;;;;;;32.03;24.43;;;10.30;99.90;;;;;;5077132;28;20465;-58
2023/04/07 01:07:24;;;;;;;32.63;24.47;;;10.40;99.90;;;;;;5077106;28;20464;-57
2023/04/07 01:09:56;;;;;;;33.13;24.37;;;10.40;99.90;;;;;;5077838;28;20831;-57
2023/04/07 01:12:29;;;;;;;30.70;23.63;;;10.40;99.90;;;;;;5077118;28;20429;-57
2023/04/07 01:15:03;;;;;;;34.07;23.60;;;10.40;99.90;;;;;;5077029;28;20993;-58
2023/04/07 01:17:34;;;;;;;30.53;25.30;;;10.40;99.90;;;;;;5077514;28;20448;-58
2023/04/07 01:20:04;;;;;;;32.83;25.00;;;10.40;99.90;;;;;;5076841;28;20854;-58
2023/04/07 01:22:40;;;;;;;35.23;26.17;;;10.40;99.90;;;;;;5076839;28;20444;-58
2023/04/07 01:25:23;;;;;;;29.97;24.23;;;10.30;99.90;;;;;;5076698;28;20529;-58
2023/04/07 01:27:59;;;;;;;34.57;25.43;;;10.40;99.90;;;;;;5076685;28;20433;-58
2023/04/07 01:30:30;;;;;;;34.80;24.87;;;10.30;99.90;;;;;;5076718;28;20444;-58
2023/04/07 01:32:59;;;;;;;32.53;24.97;;;10.40;99.90;;;;;;5076449;28;20511;-58
2023/04/07 01:35:29;;;;;;;34.30;25.13;;;10.40;99.90;;;;;;5076334;28;20950;-58
2023/04/07 01:37:56;;;;;;;32.87;24.37;;;10.40;99.90;;;;;;5076469;28;20448;-58
2023/04/07 01:40:25;;;;;;;33.63;25.83;;;10.40;99.90;;;;;;5076383;28;20825;-58
2023/04/07 01:42:52;;;;;;;38.10;26.57;;;10.40;99.90;;;;;;5076019;28;20464;-58
2023/04/07 01:45:21;;;;;;;32.70;27.10;;;10.40;99.90;;;;;;5076070;28;20930;-58
2023/04/07 01:47:49;;;;;;;38.60;26.33;;;10.40;99.90;;;;;;5076432;28;20519;-58
2023/04/07 01:50:17;;;;;;;42.27;28.70;;;10.40;99.90;;;;;;5076401;28;20449;-58
2023/04/07 01:52:44;;;;;;;36.50;26.33;;;10.40;99.90;;;;;;5077047;28;20463;-58
2023/04/07 01:55:11;;;;;;;42.30;27.50;;;10.40;99.90;;;;;;5076098;28;20475;-58
2023/04/07 01:57:38;;;;;;;38.43;27.20;;;10.30;99.90;;;;;;5075922;28;20444;-58
2023/04/07 02:00:06;;;;;;;39.10;28.03;;;10.30;99.90;;;;;;5075728;28;20959;-58
2023/04/07 02:02:36;;;;;;;40.20;27.47;;;10.40;99.90;;;;;;5075718;28;20965;-58
2023/04/07 02:05:08;;;;;;;35.10;24.47;;;10.30;99.90;;;;;;5075264;28;20970;-58
2023/04/07 02:07:41;;;;;;;38.17;26.53;;;10.30;99.90;;;;;;5075556;28;20821;-58
2023/04/07 02:10:11;;;;;;;40.80;27.73;;;10.30;99.90;;;;;;5075901;28;20439;-58
2023/04/07 02:12:40;;;;;;;40.77;28.37;;;10.30;99.90;;;;;;5075777;28;20441;-58
2023/04/07 02:15:11;;;;;;;43.10;27.60;;;10.30;99.90;;;;;;5075653;28;20461;-58
2023/04/07 02:17:41;;;;;;;42.53;28.30;;;10.30;99.90;;;;;;5075759;28;20513;-58
2023/04/07 02:20:12;;;;;;;39.10;28.33;;;10.30;99.90;;;;;;5075730;28;20440;-58
2023/04/07 02:22:40;;;;;;;38.13;27.57;;;10.30;99.90;;;;;;5075585;28;20455;-58
2023/04/07 02:25:24;;;;;;;42.73;28.13;;;10.20;99.90;;;;;;5075499;28;20469;-58
2023/04/07 02:27:51;;;;;;;41.07;28.70;;;10.20;99.90;;;;;;5075603;28;20805;-58
2023/04/07 02:30:18;;;;;;;43.43;28.37;;;10.20;99.90;;;;;;5075562;28;20440;-58
2023/04/07 02:32:45;;;;;;;46.13;29.57;;;10.20;99.90;;;;;;5076252;28;20781;-58
2023/04/07 02:35:13;;;;;;;37.10;28.10;;;10.20;99.90;;;;;;5075355;28;20468;-58
2023/04/07 02:37:40;;;;;;;41.53;28.13;;;10.20;99.90;;;;;;5075312;28;20449;-58
2023/04/07 02:40:08;;;;;;;42.13;28.33;;;10.20;99.90;;;;;;5075227;28;20452;-58
2023/04/07 02:42:35;;;;;;;37.40;27.17;;;10.20;99.90;;;;;;5074930;28;20449;-58
2023/04/07 02:45:02;;;;;;;41.33;28.10;;;10.20;99.90;;;;;;5075133;28;20468;-58
2023/04/07 02:47:28;;;;;;;37.47;27.50;;;10.20;99.90;;;;;;5075026;28;20480;-58
2023/04/07 02:49:55;;;;;;;41.17;28.43;;;10.20;99.90;;;;;;5074739;28;20960;-58
2023/04/07 02:52:23;;;;;;;38.07;25.93;;;10.20;99.90;;;;;;5075091;28;20472;-58
2023/04/07 02:54:50;;;;;;;40.53;27.97;;;10.20;99.90;;;;;;5075064;28;20468;-58
2023/04/07 02:57:17;;;;;;;44.83;27.90;;;10.10;99.90;;;;;;5074997;28;20449;-58
2023/04/07 02:59:44;;;;;;;38.40;25.70;;;10.10;99.90;;;;;;5074919;28;20452;-58
2023/04/07 03:02:10;;;;;;;38.10;25.97;;;10.10;99.90;;;;;;5074962;28;20816;-58
2023/04/07 03:04:37;;;;;;;42.60;26.97;;;10.20;99.90;;;;;;5074843;28;20476;-58
2023/04/07 03:07:04;;;;;;;40.93;25.63;;;10.10;99.90;;;;;;5074667;28;20486;-58
2023/04/07 03:09:32;;;;;;;33.57;25.20;;;10.10;99.90;;;;;;5074634;28;20463;-58
2023/04/07 03:11:59;;;;;;;36.13;25.53;;;10.10;99.90;;;;;;5074656;28;20448;-58
2023/04/07 03:14:26;;;;;;;37.20;25.70;;;10.10;99.90;;;;;;5074506;28;20468;-57
2023/04/07 03:16:52;;;;;;;35.90;25.77;;;10.10;99.90;;;;;;5073555;28;20451;-58
2023/04/07 03:19:19;;;;;;;36.90;25.80;;;10.10;99.90;;;;;;5074605;28;20452;-57
2023/04/07 03:21:46;;;;;;;33.77;25.87;;;10.10;99.90;;;;;;5074122;28;20823;-58
2023/04/07 03:24:12;;;;;;;39.10;26.17;;;10.10;99.90;;;;;;5074309;28;20511;-58
2023/04/07 03:26:40;;;;;;;35.70;24.73;;;10.10;99.90;;;;;;5074191;28;20526;-58
2023/04/07 03:29:07;;;;;;;38.50;26.13;;;10.20;99.90;;;;;;5074241;28;20456;-58
2023/04/07 03:31:34;;;;;;;37.77;26.83;;;10.20;99.90;;;;;;5074209;28;20453;-58
2023/04/07 03:34:00;;;;;;;36.20;25.10;;;10.10;99.90;;;;;;5074137;28;20465;-58
2023/04/07 03:36:27;;;;;;;36.47;27.00;;;10.10;99.90;;;;;;5073936;28;20931;-58
2023/04/07 03:38:54;;;;;;;39.07;26.67;;;10.10;99.90;;;;;;5074157;28;20480;-58
2023/04/07 03:41:21;;;;;;;32.27;25.33;;;10.20;99.90;;;;;;5073752;28;20870;-58
2023/04/07 03:43:49;;;;;;;35.50;25.60;;;10.20;99.90;;;;;;5073955;28;20830;-58
2023/04/07 03:46:16;;;;;;;37.63;26.03;;;10.10;99.90;;;;;;5074031;28;20480;-58
2023/04/07 03:48:42;;;;;;;36.47;25.63;;;10.00;99.90;;;;;;5073527;28;20966;-58
2023/04/07 03:51:09;;;;;;;34.53;22.93;;;10.00;99.90;;;;;;5073905;28;20448;-58
2023/04/07 03:53:36;;;;;;;38.53;24.97;;;10.00;99.90;;;;;;5073741;28;20460;-57
2023/04/07 03:56:03;;;;;;;32.37;21.33;;;10.10;99.90;;;;;;5073835;28;20448;-58
2023/04/07 03:58:30;;;;;;;30.60;22.23;;;10.00;99.90;;;;;;5073827;28;20445;-58
2023/04/07 04:00:58;;;;;;;30.30;23.13;;;10.00;99.90;;;;;;5073733;28;20455;-58
2023/04/07 04:03:25;;;;;;;25.80;19.60;;;10.10;99.90;;;;;;5073674;28;20468;-58
2023/04/07 04:05:52;;;;;;;29.80;21.17;;;10.00;99.90;;;;;;5073691;28;20456;-58
2023/04/07 04:08:18;;;;;;;25.40;19.40;;;10.00;99.90;;;;;;5073626;28;20541;-58
2023/04/07 04:10:45;;;;;;;25.63;19.63;;;10.00;99.90;;;;;;5073299;28;20969;-58
2023/04/07 04:13:12;;;;;;;22.40;18.17;;;10.00;99.90;;;;;;5073484;28;20545;-58
2023/04/07 04:15:39;;;;;;;24.50;18.20;;;10.00;99.90;;;;;;5073528;28;20459;-58
2023/04/07 04:18:07;;;;;;;22.03;17.73;;;9.90;99.90;;;;;;5073147;28;20444;-58
2023/04/07 04:20:36;;;;;;;20.30;17.50;;;10.00;99.90;;;;;;5073183;28;20946;-58
2023/04/07 04:23:03;;;;;;;20.63;14.20;;;9.90;99.90;;;;;;5073341;28;20459;-58
2023/04/07 04:25:29;;;;;;;21.47;16.30;;;9.90;99.90;;;;;;5073434;28;20451;-58
2023/04/07 04:27:56;;;;;;;18.40;14.37;;;9.90;99.90;;;;;;5073069;28;20485;-58
2023/04/07 04:30:23;;;;;;;16.60;14.30;;;9.90;99.90;;;;;;5073346;28;20453;-58
2023/04/07 04:32:49;;;;;;;21.67;14.30;;;9.80;99.90;;;;;;5073417;28;20475;-58
2023/04/07 04:35:18;;;;;;;18.20;13.73;;;9.80;99.90;;;;;;5073467;28;20445;-58
2023/04/07 04:37:44;;;;;;;17.03;13.57;;;9.80;99.90;;;;;;5073442;28;20440;-58
2023/04/07 04:40:13;;;;;;;19.40;13.90;;;9.90;99.90;;;;;;5074294;28;20513;-58
2023/04/07 04:42:40;;;;;;;16.30;13.70;;;9.90;99.90;;;;;;5073029;28;20492;-58
2023/04/07 04:45:07;;;;;;;17.67;13.40;;;9.90;99.90;;;;;;5073366;28;20472;-58
2023/04/07 04:47:34;;;;;;;24.00;14.33;;;9.90;99.90;;;;;;5073256;28;20483;-58
2023/04/07 04:50:01;;;;;;;17.67;14.03;;;9.90;99.90;;;;;;5073358;28;20445;-58
2023/04/07 04:52:29;;;;;;;19.00;13.80;;;10.00;99.90;;;;;;5073340;28;20802;-58
2023/04/07 04:54:56;;;;;;;18.30;13.33;;;9.90;99.90;;;;;;5073175;28;20492;-58
2023/04/07 04:57:22;;;;;;;17.27;13.70;;;9.90;99.90;;;;;;5073288;28;20859;-58
2023/04/07 04:59:49;;;;;;;17.73;13.27;;;9.80;99.90;;;;;;5073136;28;20460;-58
2023/04/07 05:02:16;;;;;;;15.37;11.60;;;9.80;99.90;;;;;;5073248;28;20452;-58
2023/04/07 05:04:42;;;;;;;16.10;12.93;;;9.80;99.90;;;;;;5073192;28;20475;-58
2023/04/07 05:07:09;;;;;;;15.10;12.80;;;9.80;99.90;;;;;;5073110;28;20476;-58
2023/04/07 05:09:37;;;;;;;15.33;10.77;;;9.80;99.90;;;;;;5073065;28;20559;-58
2023/04/07 05:12:04;;;;;;;13.87;9.67;;;9.90;99.90;;;;;;5072994;28;20445;-58
2023/04/07 05:14:31;;;;;;;15.43;10.17;;;9.80;99.90;;;;;;5073658;28;20507;-58
2023/04/07 05:16:59;;;;;;;11.57;9.13;;;9.80;99.90;;;;;;5072938;28;20441;-58
2023/04/07 05:19:28;;;;;;;11.87;8.87;;;9.80;99.90;;;;;;5072588;28;21017;-58
2023/04/07 05:21:55;;;;;;;10.70;8.40;;;9.90;99.90;;;;;;5072915;28;20444;-58
2023/04/07 05:24:21;;;;;;;13.10;8.33;;;9.90;99.90;;;;;;5072827;28;20514;-58
2023/04/07 05:26:49;;;;;;;12.30;7.77;;;10.00;99.90;;;;;;5072765;28;20525;-58
2023/04/07 05:29:16;;;;;;;9.27;8.20;;;10.00;99.90;;;;;;5072765;28;20451;-58
2023/04/07 05:31:43;;;;;;;9.10;6.60;;;10.00;99.90;;;;;;5072643;28;20455;-58
2023/04/07 05:34:10;;;;;;;10.93;8.70;;;10.10;99.90;;;;;;5072618;28;20475;-58
2023/04/07 05:36:36;;;;;;;11.10;7.03;;;10.10;99.90;;;;;;5072508;28;20506;-58
2023/04/07 05:39:03;;;;;;;10.73;6.87;;;10.10;99.90;;;;;;5072655;28;20456;-58
2023/04/07 05:41:30;;;;;;;8.17;7.37;;;10.10;99.90;;;;;;5074913;28;20464;-58
2023/04/07 05:43:58;;;;;;;9.20;7.40;;;10.10;99.90;;;;;;5076490;28;20464;-58
2023/04/07 05:46:24;;;;;;;9.87;6.90;;;10.10;99.90;;;;;;5076193;28;20447;-58
2023/04/07 05:48:51;;;;;;;7.60;6.73;;;10.20;99.90;;;;;;5075818;28;20856;-58
2023/04/07 05:51:18;;;;;;;9.83;7.23;;;10.30;99.90;;;;;;5076552;28;20444;-58
2023/04/07 05:53:44;;;;;;;9.03;7.43;;;10.30;99.90;;;;;;5076153;28;20476;-58
2023/04/07 05:56:11;;;;;;;9.87;7.80;;;10.30;99.90;;;;;;5076367;28;20825;-58
2023/04/07 05:58:38;;;;;;;16.77;8.70;;;10.30;99.90;;;;;;5075897;28;20859;-58
2023/04/07 06:01:06;;;;;;;13.60;9.43;;;10.30;99.90;;;;;;5076077;28;20456;-58
2023/04/07 06:03:33;;;;;;;12.80;10.80;;;10.30;99.90;;;;;;5075875;28;20472;-57
2023/04/07 06:05:59;;;;;;;20.33;12.20;;;10.30;99.90;;;;;;5076015;28;20444;-57
2023/04/07 06:08:26;;;;;;;16.20;11.67;;;10.30;99.90;;;;;;5075960;28;20488;-58
2023/04/07 06:10:53;;;;;;;13.63;10.13;;;10.20;99.90;;;;;;5075955;28;20445;-58
2023/04/07 06:13:20;;;;;;;13.30;10.07;;;10.20;99.90;;;;;;5075651;28;20472;-57
2023/04/07 06:15:47;;;;;;;14.97;10.00;;;10.30;99.90;;;;;;5075572;28;20460;-58
2023/04/07 06:18:15;;;;;;;12.97;10.30;;;10.30;99.90;;;;;;5075504;28;20980;-58
2023/04/07 06:20:41;;;;;;;12.10;10.00;;;10.40;99.90;;;;;;5075754;28;20461;-58
2023/04/07 06:23:08;;;;;;;10.70;9.60;;;10.40;99.90;;;;;;5075648;28;20448;-58
2023/04/07 06:25:35;;;;;;;10.13;8.70;;;10.40;99.90;;;;;;5075740;28;20449;-58
2023/04/07 06:28:02;;;;;;;13.30;8.77;;;10.40;99.90;;;;;;5075452;28;20476;-58
2023/04/07 06:30:28;;;;;;;12.20;8.17;;;10.40;99.90;;;;;;5075423;28;20875;-57
2023/04/07 06:32:55;;;;;;;14.53;10.57;;;10.50;99.90;;;;;;5075418;28;20448;-58
2023/04/07 06:35:25;;;;;;;12.70;10.10;;;10.50;99.90;;;;;;5075336;28;20453;-58
2023/04/07 06:37:52;;;;;;;15.17;10.50;;;10.50;99.90;;;;;;5075470;28;20429;-58
2023/04/07 06:40:19;;;;;;;12.40;9.27;;;10.60;99.90;;;;;;5075339;28;20819;-58
2023/04/07 06:42:45;;;;;;;12.27;8.83;;;10.60;99.90;;;;;;5074880;28;20453;-58
2023/04/07 06:45:12;;;;;;;13.53;10.43;;;10.60;99.90;;;;;;5074897;28;20487;-58
2023/04/07 06:47:39;;;;;;;10.13;8.60;;;10.60;99.90;;;;;;5075149;28;20484;-58
2023/04/07 06:50:07;;;;;;;12.80;8.50;;;10.60;99.90;;;;;;5075255;28;20444;-58
2023/04/07 06:52:35;;;;;;;11.87;9.53;;;10.60;99.90;;;;;;5074756;28;20441;-58
2023/04/07 06:55:02;;;;;;;17.07;11.43;;;10.50;99.90;;;;;;5075496;28;20469;-58
2023/04/07 06:57:29;;;;;;;16.30;11.00;;;10.50;99.90;;;;;;5075223;28;20446;-58
2023/04/07 06:59:55;;;;;;;15.87;10.20;;;10.50;99.90;;;;;;5075178;28;20570;-58
2023/04/07 07:02:22;;;;;;;12.50;9.50;;;10.50;99.90;;;;;;5075158;28;20451;-58
2023/04/07 07:04:49;;;;;;;16.40;9.70;;;10.50;99.90;;;;;;5066889;28;20466;-58
2023/04/07 07:07:16;;;;;;;13.10;9.00;;;10.50;99.90;;;;;;5054804;28;20481;-58
2023/04/07 07:09:44;;;;;;;13.87;8.60;;;10.40;99.90;;;;;;5066375;28;20444;-58
2023/04/07 07:12:10;;;;;;;13.30;9.37;;;10.40;99.90;;;;;;5074759;28;20815;-58
2023/04/07 07:14:37;;;;;;;10.57;8.40;;;10.40;99.90;;;;;;5074718;28;20491;-58
2023/04/07 07:17:04;;;;;;;12.93;8.73;;;10.40;99.90;;;;;;5074850;28;20448;-58
2023/04/07 07:19:30;;;;;;;10.10;8.60;;;10.40;99.90;;;;;;5074312;28;20831;-59
2023/04/07 07:21:57;;;;;;;10.47;8.70;;;10.40;99.90;;;;;;5074618;28;20448;-58
2023/04/07 07:24:24;;;;;;;13.70;8.93;;;10.40;99.90;;;;;;5061960;28;20469;-58
2023/04/07 07:26:52;;;;;;;12.43;9.43;;;10.40;99.90;;;;;;5054329;28;20473;-59
2023/04/07 07:29:19;;;;;;;15.23;8.83;;;10.40;99.90;;;;;;5054457;28;20543;-59
2023/04/07 07:31:46;;;;;;;15.40;9.93;;;10.40;99.90;;;;;;5054606;28;20441;-59
2023/04/07 07:34:13;;;;;;;12.97;10.20;;;10.40;99.90;;;;;;5057431;28;20466;-58
2023/04/07 07:36:39;;;;;;;10.60;8.03;;;10.40;99.90;;;;;;5058527;28;20449;-58
2023/04/07 07:39:06;;;;;;;12.30;8.50;;;10.40;99.90;;;;;;5054956;28;20445;-58
2023/04/07 07:41:33;;;;;;;11.70;8.27;;;10.40;99.90;;;;;;5054829;28;20464;-59
2023/04/07 07:44:01;;;;;;;16.83;9.53;;;10.50;99.90;;;;;;5054465;28;20465;-58
2023/04/07 07:46:28;;;;;;;12.00;7.50;;;10.60;99.90;;;;;;5054870;28;20449;-59
2023/04/07 07:48:54;;;;;;;11.30;8.33;;;10.70;99.90;;;;;;5054280;28;20485;-58
2023/04/07 07:51:21;;;;;;;12.00;8.10;;;10.70;99.90;;;;;;5054391;28;20446;-59
2023/04/07 07:53:48;;;;;;;13.83;8.73;;;10.80;99.90;;;;;;5054023;28;20492;-59
2023/04/07 07:56:15;;;;;;;9.50;7.63;;;10.90;99.90;;;;;;5054257;28;20830;-59
2023/04/07 07:58:41;;;;;;;10.20;7.63;;;10.90;99.90;;;;;;5054228;28;20515;-59
2023/04/07 08:01:09;;;;;;;10.40;7.53;;;11.00;99.90;;;;;;5054152;28;20473;-59
2023/04/07 08:03:36;;;;;;;9.23;6.87;;;11.10;99.90;;;;;;5053703;28;20564;-59
2023/04/07 08:06:03;;;;;;;8.03;6.47;;;11.10;99.90;;;;;;5054398;28;20449;-58
2023/04/07 08:08:30;;;;;;;12.70;8.10;;;11.10;99.90;;;;;;5053821;28;20555;-59
2023/04/07 08:10:56;;;;;;;11.07;7.57;;;11.00;99.90;;;;;;5053863;28;20456;-59
2023/04/07 08:13:23;;;;;;;14.50;9.13;;;11.00;99.90;;;;;;5053446;28;20470;-58
2023/04/07 08:15:50;;;;;;;9.80;8.33;;;11.00;99.90;;;;;;5053404;28;20958;-58
2023/04/07 08:18:18;;;;;;;11.37;8.30;;;11.00;99.90;;;;;;5053657;28;20450;-58
2023/04/07 08:20:45;;;;;;;11.37;8.60;;;11.10;99.90;;;;;;5053223;28;20931;-58
2023/04/07 08:23:12;;;;;;;11.80;8.40;;;11.10;99.90;;;;;;5053549;28;20478;-58
2023/04/07 08:25:39;;;;;;;13.07;8.33;;;11.10;99.90;;;;;;5053525;28;20446;-58
2023/04/07 08:28:06;;;;;;;16.83;8.50;;;11.20;99.90;;;;;;5053364;28;20477;-59
2023/04/07 08:30:33;;;;;;;12.87;9.50;;;11.20;99.90;;;;;;5053373;28;20449;-58
2023/04/07 08:33:00;;;;;;;11.67;9.03;;;11.20;99.90;;;;;;5053261;28;20453;-59
2023/04/07 08:35:28;;;;;;;11.70;9.23;;;11.10;99.90;;;;;;5053347;28;20473;-58
2023/04/07 08:37:55;;;;;;;15.50;10.33;;;11.00;99.90;;;;;;5053349;28;20445;-58
2023/04/07 08:40:21;;;;;;;16.10;9.80;;;10.90;99.90;;;;;;5053017;28;20943;-58
2023/04/07 08:42:49;;;;;;;18.30;10.30;;;10.80;99.90;;;;;;5052917;28;20465;-59
2023/04/07 08:45:17;;;;;;;17.90;9.90;;;10.80;99.90;;;;;;5053270;28;20469;-58
2023/04/07 08:47:46;;;;;;;19.97;10.83;;;10.70;99.90;;;;;;5053262;28;20891;-58
2023/04/07 08:50:16;;;;;;;14.77;10.47;;;10.70;99.90;;;;;;5052594;28;20943;-59
2023/04/07 08:52:50;;;;;;;25.63;10.63;;;10.70;99.90;;;;;;5053026;28;20445;-58
2023/04/07 08:55:16;;;;;;;18.03;12.53;;;10.70;99.90;;;;;;5053359;28;20455;-58
2023/04/07 08:57:43;;;;;;;15.93;12.17;;;10.70;99.90;;;;;;5053180;28;20520;-58
2023/04/07 09:00:11;;;;;;;16.07;11.70;;;10.70;99.90;;;;;;5052908;28;20966;-58
2023/04/07 09:02:40;;;;;;;15.40;10.83;;;10.70;99.90;;;;;;5053002;28;20456;-58
2023/04/07 09:05:08;;;;;;;15.07;11.30;;;10.70;99.90;;;;;;5053018;28;20472;-58
2023/04/07 09:07:36;;;;;;;14.23;10.70;;;10.80;99.90;;;;;;5052905;28;20457;-59
2023/04/07 09:10:06;;;;;;;18.30;11.40;;;10.80;99.90;;;;;;5053527;28;20446;-58
2023/04/07 09:12:34;;;;;;;14.60;11.30;;;10.80;99.90;;;;;;5052929;28;20500;-58
2023/04/07 09:15:01;;;;;;;22.80;12.40;;;10.90;99.90;;;;;;5053109;28;20473;-58
2023/04/07 09:17:28;;;;;;;20.90;12.23;;;10.80;99.90;;;;;;5057025;28;20452;-58
2023/04/07 09:19:58;;;;;;;18.83;11.53;;;10.80;99.90;;;;;;5056997;28;20456;-58
2023/04/07 09:22:45;;;;;;;15.73;11.47;;;10.70;99.90;;;;;;5056596;28;20951;-58
2023/04/07 09:25:16;;;;;;;18.53;12.33;;;10.70;99.90;;;;;;5051598;28;20481;-58
2023/04/07 09:27:58;;;;;;;18.10;12.20;;;10.70;99.90;;;;;;5056600;28;20450;-58
2023/04/07 09:30:24;;;;;;;17.17;12.77;;;10.70;99.90;;;;;;5056343;28;20926;-58
2023/04/07 09:32:51;;;;;;;21.10;12.07;;;10.70;99.90;;;;;;5056551;28;20445;-59
2023/04/07 09:35:18;;;;;;;22.27;12.13;;;10.70;99.90;;;;;;5056681;28;20452;-58
2023/04/07 09:38:00;;;;;;;16.67;11.77;;;10.70;99.90;;;;;;5056542;28;20457;-58
2023/04/07 09:40:28;;;;;;;18.97;12.67;;;10.70;99.90;;;;;;5056426;28;20465;-58
2023/04/07 09:42:57;;;;;;;19.10;11.73;;;10.70;99.90;;;;;;5055924;28;20457;-59
2023/04/07 09:45:25;;;;;;;15.60;10.37;;;10.80;99.90;;;;;;5056336;28;20454;-58
2023/04/07 09:47:52;;;;;;;19.80;12.00;;;10.90;99.90;;;;;;5056227;28;20503;-58
2023/04/07 09:50:32;;;;;;;13.83;10.90;;;10.90;99.90;;;;;;5056324;28;20460;-58
2023/04/07 09:53:00;;;;;;;15.03;9.37;;;11.00;99.90;;;;;;5056984;28;20518;-58
2023/04/07 09:55:28;;;;;;;16.37;11.23;;;11.10;99.90;;;;;;5056184;28;20514;-58
2023/04/07 09:57:55;;;;;;;16.80;9.37;;;11.20;99.90;;;;;;5056250;28;20475;-58
2023/04/07 10:00:23;;;;;;;18.13;9.77;;;11.20;99.90;;;;;;5056152;28;20454;-58
2023/04/07 10:02:51;;;;;;;17.30;10.63;;;11.30;99.90;;;;;;5056099;28;20444;-58
2023/04/07 10:05:20;;;;;;;17.43;11.13;;;11.30;99.90;;;;;;5055977;28;20457;-58
2023/04/07 10:07:47;;;;;;;15.03;11.07;;;11.20;99.90;;;;;;5055889;28;20446;-58
2023/04/07 10:10:14;;;;;;;17.93;12.87;;;11.10;99.90;;;;;;5055794;28;20543;-58
2023/04/07 10:12:44;;;;;;;14.67;10.73;;;11.10;99.90;;;;;;5055547;28;20982;-58
2023/04/07 10:15:14;;;;;;;18.60;12.40;;;11.10;99.90;;;;;;5055729;28;20564;-58
2023/04/07 10:17:44;;;;;;;26.30;12.70;;;11.10;99.90;;;;;;5055316;28;20440;-59
2023/04/07 10:20:11;;;;;;;18.90;11.60;;;11.10;99.90;;;;;;5055472;28;20452;-58
2023/04/07 10:22:41;;;;;;;20.40;11.97;;;11.10;99.90;;;;;;5055327;28;20445;-58
2023/04/07 10:25:10;;;;;;;16.20;12.10;;;11.10;99.90;;;;;;5055549;28;20465;-58
2023/04/07 10:27:41;;;;;;;18.17;12.77;;;11.30;99.90;;;;;;5055044;28;20542;-58
2023/04/07 10:30:17;;;;;;;16.70;10.80;;;11.40;99.90;;;;;;5055166;28;20466;-58
2023/04/07 10:32:48;;;;;;;14.40;11.17;;;11.60;99.90;;;;;;5055487;28;20516;-58
2023/04/07 10:35:15;;;;;;;12.63;10.60;;;11.80;99.90;;;;;;5055410;28;20838;-59
2023/04/07 10:38:13;;;;;;;16.53;9.80;;;12.10;99.90;;;;;;5055595;28;20867;-59
2023/04/07 10:40:41;;;;;;;11.20;8.30;;;12.40;99.90;;;;;;5055308;28;20446;-58
2023/04/07 10:43:10;;;;;;;12.50;8.20;;;12.70;99.90;;;;;;5055214;28;20429;-58
2023/04/07 10:45:58;;;;;;;11.83;8.33;;;12.80;99.90;;;;;;5055519;28;20552;-58
2023/04/07 10:48:27;;;;;;;16.03;9.20;;;13.00;99.90;;;;;;5055165;28;20552;-58
2023/04/07 10:51:14;;;;;;;9.40;8.13;;;13.00;99.90;;;;;;5054840;28;20450;-58
2023/04/07 10:54:21;;;;;;;11.87;9.23;;;13.30;99.90;;;;;;5055053;28;20551;-58
2023/04/07 10:57:06;;;;;;;12.10;8.40;;;13.40;99.90;;;;;;5055058;28;20528;-58
2023/04/07 10:59:34;;;;;;;10.00;8.80;;;13.60;99.70;;;;;;5054979;28;20479;-59
2023/04/07 11:02:33;;;;;;;10.07;8.50;;;13.60;99.40;;;;;;5054955;28;20456;-58
2023/04/07 11:05:00;;;;;;;12.53;8.10;;;13.60;98.60;;;;;;5054680;28;20465;-58
2023/04/07 11:07:47;;;;;;;10.00;7.53;;;13.50;98.10;;;;;;5054870;28;20450;-58
2023/04/07 11:10:15;;;;;;;10.67;7.83;;;13.40;98.20;;;;;;5054755;28;20580;-58
2023/04/07 11:12:42;;;;;;;9.43;7.90;;;13.20;98.80;;;;;;5054650;28;20888;-58
2023/04/07 11:15:20;;;;;;;14.17;10.43;;;13.00;98.20;;;;;;5054677;28;20497;-58
2023/04/07 11:18:07;;;;;;;17.30;11.03;;;12.90;99.40;;;;;;5054585;28;20449;-58
2023/04/07 11:20:45;;;;;;;20.10;12.60;;;12.70;99.90;;;;;;5054692;28;20457;-59
2023/04/07 11:23:12;;;;;;;24.57;13.53;;;12.50;99.90;;;;;;5054395;28;20501;-58
2023/04/07 11:25:41;;;;;;;21.20;13.37;;;12.20;99.90;;;;;;5054565;28;20457;-58
2023/04/07 11:28:11;;;;;;;20.73;14.40;;;12.10;99.90;;;;;;5054239;28;20449;-58
2023/04/07 11:30:37;;;;;;;17.50;13.70;;;12.00;99.90;;;;;;5054262;28;20509;-58
2023/04/07 11:33:07;;;;;;;16.87;12.87;;;11.90;99.90;;;;;;5054233;28;20869;-58
2023/04/07 11:35:33;;;;;;;22.07;14.00;;;11.90;99.90;;;;;;5054188;28;20487;-58
2023/04/07 11:38:02;;;;;;;24.40;13.27;;;11.80;99.90;;;;;;5053980;28;20452;-58
2023/04/07 11:40:34;;;;;;;20.13;14.00;;;11.80;99.90;;;;;;5054367;28;20450;-58
2023/04/07 11:43:01;;;;;;;19.00;11.60;;;12.00;99.90;;;;;;5053736;28;20459;-58
2023/04/07 11:45:28;;;;;;;19.03;12.80;;;12.00;99.90;;;;;;5054028;28;20808;-58
2023/04/07 11:47:55;;;;;;;18.70;12.20;;;12.10;99.90;;;;;;5054174;28;20453;-58
2023/04/07 11:50:41;;;;;;;22.60;13.13;;;12.10;99.90;;;;;;5054136;28;20562;-58
2023/04/07 11:53:08;;;;;;;21.73;14.37;;;12.10;99.90;;;;;;5054052;28;20469;-58
2023/04/07 11:55:35;;;;;;;17.23;13.07;;;12.10;99.90;;;;;;5054050;28;20445;-59
2023/04/07 11:58:08;;;;;;;17.77;11.87;;;12.20;99.90;;;;;;5053886;28;20488;-58
2023/04/07 12:00:36;;;;;;;19.37;12.40;;;12.40;99.90;;;;;;5053914;28;20500;-58
2023/04/07 12:03:10;;;;;;;18.77;12.37;;;12.50;99.90;;;;;;5053920;28;20532;-59
2023/04/07 12:05:44;;;;;;;17.93;11.23;;;12.70;99.90;;;;;;5053821;28;20433;-58
2023/04/07 12:08:10;;;;;;;14.20;10.47;;;12.90;99.90;;;;;;5053820;28;20501;-58
2023/04/07 12:10:39;;;;;;;12.60;10.80;;;13.20;99.90;;;;;;5053580;28;20978;-58
2023/04/07 12:13:07;;;;;;;16.63;11.17;;;13.40;99.90;;;;;;5053246;28;20457;-59
2023/04/07 12:15:33;;;;;;;14.27;11.77;;;13.70;99.90;;;;;;5053418;28;20547;-58
2023/04/07 12:18:01;;;;;;;12.40;10.30;;;13.90;99.90;;;;;;5054036;28;20454;-58
2023/04/07 12:20:28;;;;;;;12.37;11.07;;;14.10;98.00;;;;;;5053474;28;20503;-58
2023/04/07 12:22:56;;;;;;;13.07;9.97;;;14.30;98.10;;;;;;5053463;28;20441;-59
2023/04/07 12:25:23;;;;;;;12.57;8.67;;;14.40;97.50;;;;;;5053085;28;20992;-58
2023/04/07 12:27:50;;;;;;;12.63;9.40;;;14.50;96.40;;;;;;5053053;28;20866;-58
2023/04/07 12:30:16;;;;;;;11.17;9.20;;;14.50;96.40;;;;;;5053241;28;20882;-58
2023/04/07 12:32:43;;;;;;;12.90;9.90;;;14.50;95.70;;;;;;5053297;28;20472;-58
2023/04/07 12:35:10;;;;;;;10.87;9.10;;;14.40;95.80;;;;;;5053198;28;20485;-58
2023/04/07 12:37:37;;;;;;;9.70;8.30;;;14.40;95.80;;;;;;5053077;28;20437;-58